sensor_id;sensor_type;location;lat;lon;timestamp;pressure;altitude;pressure_sealevel;temperature;humidity
33625;BME280;19962;47.820;1.930;2023-02-28T00:00:26;101324.16;;;4.75;47.55
33625;BME280;19962;47.820;1.930;2023-02-28T00:02:52;101328.56;;;4.76;47.27
33625;BME280;19962;47.820;1.930;2023-02-28T00:05:20;101322.28;;;4.76;47.53
33625;BME280;19962;47.820;1.930;2023-02-28T00:07:48;101327.88;;;4.82;47.26
33625;BME280;19962;47.820;1.930;2023-02-28T00:10:17;101331.25;;;4.84;47.39
33625;BME280;19962;47.820;1.930;2023-02-28T00:12:49;101327.88;;;4.74;47.37
33625;BME280;19962;47.820;1.930;2023-02-28T00:15:15;101339.47;;;4.60;47.72
33625;BME280;19962;47.820;1.930;2023-02-28T00:17:42;101330.63;;;4.58;47.63
33625;BME280;19962;47.820;1.930;2023-02-28T00:20:09;101342.84;;;4.62;47.89
33625;BME280;19962;47.820;1.930;2023-02-28T00:22:42;101341.56;;;4.34;48.42
33625;BME280;19962;47.820;1.930;2023-02-28T00:25:10;101344.44;;;4.33;48.35
33625;BME280;19962;47.820;1.930;2023-02-28T00:27:38;101343.59;;;4.24;48.58
33625;BME280;19962;47.820;1.930;2023-02-28T00:30:06;101353.25;;;4.43;48.25
33625;BME280;19962;47.820;1.930;2023-02-28T00:32:34;101345.94;;;4.51;48.20
33625;BME280;19962;47.820;1.930;2023-02-28T00:35:01;101351.38;;;4.35;48.46
33625;BME280;19962;47.820;1.930;2023-02-28T00:37:28;101357.50;;;4.29;48.59
33625;BME280;19962;47.820;1.930;2023-02-28T00:39:54;101352.75;;;4.39;48.47
33625;BME280;19962;47.820;1.930;2023-02-28T00:42:20;101359.03;;;4.40;48.53
33625;BME280;19962;47.820;1.930;2023-02-28T00:44:46;101356.50;;;4.38;48.33
33625;BME280;19962;47.820;1.930;2023-02-28T00:47:12;101360.91;;;4.47;48.33
33625;BME280;19962;47.820;1.930;2023-02-28T00:49:38;101358.50;;;4.36;48.48
33625;BME280;19962;47.820;1.930;2023-02-28T00:52:04;101363.44;;;4.33;48.62
33625;BME280;19962;47.820;1.930;2023-02-28T00:54:30;101363.13;;;4.44;48.35
33625;BME280;19962;47.820;1.930;2023-02-28T00:56:56;101367.88;;;4.26;48.90
33625;BME280;19962;47.820;1.930;2023-02-28T00:59:23;101369.91;;;4.40;48.60
33625;BME280;19962;47.820;1.930;2023-02-28T01:01:49;101366.34;;;4.39;48.59
33625;BME280;19962;47.820;1.930;2023-02-28T01:04:15;101367.34;;;4.22;48.98
33625;BME280;19962;47.820;1.930;2023-02-28T01:06:41;101372.13;;;4.28;48.79
33625;BME280;19962;47.820;1.930;2023-02-28T01:09:08;101368.56;;;4.36;48.79
33625;BME280;19962;47.820;1.930;2023-02-28T01:11:35;101369.91;;;4.48;48.68
33625;BME280;19962;47.820;1.930;2023-02-28T01:14:01;101377.22;;;4.15;48.95
33625;BME280;19962;47.820;1.930;2023-02-28T01:16:28;101369.06;;;4.15;49.25
33625;BME280;19962;47.820;1.930;2023-02-28T01:18:54;101380.94;;;4.06;49.25
33625;BME280;19962;47.820;1.930;2023-02-28T01:21:21;101371.75;;;3.99;49.55
33625;BME280;19962;47.820;1.930;2023-02-28T01:23:48;101384.00;;;4.11;49.35
33625;BME280;19962;47.820;1.930;2023-02-28T01:26:18;101381.09;;;4.21;49.53
33625;BME280;19962;47.820;1.930;2023-02-28T01:28:44;101377.72;;;4.27;49.21
33625;BME280;19962;47.820;1.930;2023-02-28T01:31:11;101384.81;;;4.12;49.48
33625;BME280;19962;47.820;1.930;2023-02-28T01:33:38;101384.16;;;4.10;49.70
33625;BME280;19962;47.820;1.930;2023-02-28T01:36:07;101394.88;;;4.19;49.47
33625;BME280;19962;47.820;1.930;2023-02-28T01:38:33;101389.06;;;4.22;49.44
33625;BME280;19962;47.820;1.930;2023-02-28T01:41:00;101381.47;;;4.26;49.17
33625;BME280;19962;47.820;1.930;2023-02-28T01:46:15;101385.50;;;4.06;49.75
33625;BME280;19962;47.820;1.930;2023-02-28T01:48:48;101380.41;;;4.11;50.15
33625;BME280;19962;47.820;1.930;2023-02-28T01:51:22;101385.16;;;4.01;50.40
33625;BME280;19962;47.820;1.930;2023-02-28T01:53:59;101374.13;;;4.18;50.35
33625;BME280;19962;47.820;1.930;2023-02-28T01:56:29;101373.97;;;4.20;49.92
33625;BME280;19962;47.820;1.930;2023-02-28T01:58:56;101381.44;;;4.18;49.87
33625;BME280;19962;47.820;1.930;2023-02-28T02:01:24;101370.06;;;4.14;50.06
33625;BME280;19962;47.820;1.930;2023-02-28T02:03:54;101380.78;;;4.08;50.22
33625;BME280;19962;47.820;1.930;2023-02-28T02:06:23;101376.81;;;3.86;50.76
33625;BME280;19962;47.820;1.930;2023-02-28T02:08:50;101378.22;;;3.98;50.53
33625;BME280;19962;47.820;1.930;2023-02-28T02:11:19;101377.22;;;4.15;50.60
33625;BME280;19962;47.820;1.930;2023-02-28T02:30:21;101377.34;;;3.90;51.63
33625;BME280;19962;47.820;1.930;2023-02-28T02:35:43;101373.97;;;4.20;50.87
33625;BME280;19962;47.820;1.930;2023-02-28T02:38:35;101376.69;;;3.96;51.46
33625;BME280;19962;47.820;1.930;2023-02-28T02:43:49;101384.16;;;4.02;51.28
33625;BME280;19962;47.820;1.930;2023-02-28T02:46:32;101379.94;;;4.15;51.27
33625;BME280;19962;47.820;1.930;2023-02-28T02:49:02;101375.16;;;4.01;51.22
33625;BME280;19962;47.820;1.930;2023-02-28T02:51:31;101377.53;;;4.12;51.08
33625;BME280;19962;47.820;1.930;2023-02-28T02:56:32;101376.88;;;4.02;50.95
33625;BME280;19962;47.820;1.930;2023-02-28T02:59:09;101374.13;;;3.94;51.44
33625;BME280;19962;47.820;1.930;2023-02-28T03:01:38;101382.97;;;3.88;51.29
33625;BME280;19962;47.820;1.930;2023-02-28T03:04:13;101376.81;;;3.86;51.55
33625;BME280;19962;47.820;1.930;2023-02-28T03:06:42;101381.78;;;3.99;51.22
33625;BME280;19962;47.820;1.930;2023-02-28T03:09:08;101374.63;;;3.82;51.53
33625;BME280;19962;47.820;1.930;2023-02-28T03:11:36;101379.22;;;3.89;51.45
33625;BME280;19962;47.820;1.930;2023-02-28T03:25:01;101378.00;;;3.84;51.45
33625;BME280;19962;47.820;1.930;2023-02-28T03:27:42;101371.41;;;3.86;51.36
33625;BME280;19962;47.820;1.930;2023-02-28T03:30:26;101374.44;;;3.75;51.49
33625;BME280;19962;47.820;1.930;2023-02-28T03:32:56;101375.06;;;3.53;51.86
33625;BME280;19962;47.820;1.930;2023-02-28T03:35:26;101386.97;;;3.68;51.79
33625;BME280;19962;47.820;1.930;2023-02-28T03:38:10;101388.34;;;3.72;51.63
33625;BME280;19962;47.820;1.930;2023-02-28T03:40:41;101380.88;;;3.82;51.52
33625;BME280;19962;47.820;1.930;2023-02-28T03:43:14;101379.88;;;3.75;51.71
33625;BME280;19962;47.820;1.930;2023-02-28T03:45:44;101381.59;;;3.92;51.23
33625;BME280;19962;47.820;1.930;2023-02-28T03:48:51;101384.94;;;3.78;51.40
33625;BME280;19962;47.820;1.930;2023-02-28T03:51:14;101385.13;;;3.69;51.55
33625;BME280;19962;47.820;1.930;2023-02-28T03:53:46;101376.94;;;3.61;51.44
33625;BME280;19962;47.820;1.930;2023-02-28T03:56:34;101377.81;;;3.61;51.82
33625;BME280;19962;47.820;1.930;2023-02-28T03:59:22;101378.84;;;3.68;51.43
33625;BME280;19962;47.820;1.930;2023-02-28T04:01:50;101381.88;;;3.57;51.53
33625;BME280;19962;47.820;1.930;2023-02-28T04:04:17;101375.09;;;3.61;51.67
33625;BME280;19962;47.820;1.930;2023-02-28T04:06:45;101378.50;;;3.71;51.65
33625;BME280;19962;47.820;1.930;2023-02-28T04:09:14;101376.31;;;3.75;51.49
33625;BME280;19962;47.820;1.930;2023-02-28T04:11:42;101378.00;;;3.84;51.25
33625;BME280;19962;47.820;1.930;2023-02-28T04:14:11;101375.09;;;3.69;51.55
33625;BME280;19962;47.820;1.930;2023-02-28T04:16:40;101375.47;;;3.82;51.33
33625;BME280;19962;47.820;1.930;2023-02-28T04:19:07;101385.44;;;3.66;51.35
33625;BME280;19962;47.820;1.930;2023-02-28T04:21:41;101382.50;;;3.51;51.52
33625;BME280;19962;47.820;1.930;2023-02-28T04:24:09;101382.50;;;3.43;51.97
33625;BME280;19962;47.820;1.930;2023-02-28T04:26:44;101384.88;;;3.46;51.95
33625;BME280;19962;47.820;1.930;2023-02-28T04:29:11;101386.56;;;3.39;51.84
33625;BME280;19962;47.820;1.930;2023-02-28T04:31:39;101387.22;;;3.41;51.81
33625;BME280;19962;47.820;1.930;2023-02-28T04:34:05;101381.84;;;3.49;51.88
33625;BME280;19962;47.820;1.930;2023-02-28T04:36:32;101382.19;;;3.54;51.74
33625;BME280;19962;47.820;1.930;2023-02-28T04:38:58;101381.19;;;3.63;51.69
33625;BME280;19962;47.820;1.930;2023-02-28T04:41:24;101383.25;;;3.61;51.60
33625;BME280;19962;47.820;1.930;2023-02-28T04:43:53;101395.41;;;3.49;51.79
33625;BME280;19962;47.820;1.930;2023-02-28T04:46:20;101389.47;;;3.54;51.67
33625;BME280;19962;47.820;1.930;2023-02-28T04:48:46;101389.78;;;3.43;51.67
33625;BME280;19962;47.820;1.930;2023-02-28T04:51:15;101390.44;;;3.37;51.96
33625;BME280;19962;47.820;1.930;2023-02-28T04:53:42;101388.41;;;3.39;51.87
33625;BME280;19962;47.820;1.930;2023-02-28T04:56:12;101398.41;;;3.38;51.99
33625;BME280;19962;47.820;1.930;2023-02-28T04:58:40;101393.56;;;3.50;51.77
33625;BME280;19962;47.820;1.930;2023-02-28T05:01:16;101399.28;;;3.05;52.71
33625;BME280;19962;47.820;1.930;2023-02-28T05:03:43;101404.44;;;3.24;52.40
33625;BME280;19962;47.820;1.930;2023-02-28T05:06:11;101406.34;;;3.32;51.95
33625;BME280;19962;47.820;1.930;2023-02-28T05:08:37;101407.47;;;3.13;52.36
33625;BME280;19962;47.820;1.930;2023-02-28T05:11:05;101403.72;;;3.14;52.56
33625;BME280;19962;47.820;1.930;2023-02-28T05:13:31;101405.78;;;3.20;52.43
33625;BME280;19962;47.820;1.930;2023-02-28T05:15:58;101410.97;;;3.39;52.22
33625;BME280;19962;47.820;1.930;2023-02-28T05:18:24;101405.81;;;3.28;52.33
33625;BME280;19962;47.820;1.930;2023-02-28T05:20:50;101415.13;;;3.26;52.28
33625;BME280;19962;47.820;1.930;2023-02-28T05:23:18;101407.91;;;3.34;52.19
33625;BME280;19962;47.820;1.930;2023-02-28T05:25:45;101411.59;;;3.33;52.39
33625;BME280;19962;47.820;1.930;2023-02-28T05:28:11;101407.41;;;3.39;52.22
33625;BME280;19962;47.820;1.930;2023-02-28T05:30:37;101410.16;;;3.13;52.51
33625;BME280;19962;47.820;1.930;2023-02-28T05:33:03;101412.25;;;3.27;52.34
33625;BME280;19962;47.820;1.930;2023-02-28T05:35:29;101420.75;;;3.32;52.19
33625;BME280;19962;47.820;1.930;2023-02-28T05:37:55;101409.44;;;3.03;52.72
33625;BME280;19962;47.820;1.930;2023-02-28T05:40:22;101417.22;;;3.06;52.78
33625;BME280;19962;47.820;1.930;2023-02-28T05:42:50;101418.94;;;3.07;52.33
33625;BME280;19962;47.820;1.930;2023-02-28T05:45:16;101423.38;;;3.16;52.54
33625;BME280;19962;47.820;1.930;2023-02-28T05:47:42;101429.97;;;3.06;52.44
33625;BME280;19962;47.820;1.930;2023-02-28T05:50:09;101425.31;;;2.98;52.77
33625;BME280;19962;47.820;1.930;2023-02-28T05:52:36;101432.16;;;3.10;52.61
33625;BME280;19962;47.820;1.930;2023-02-28T05:55:03;101420.31;;;3.11;52.54
33625;BME280;19962;47.820;1.930;2023-02-28T05:57:29;101430.31;;;3.11;52.42
33625;BME280;19962;47.820;1.930;2023-02-28T05:59:55;101439.69;;;3.24;52.59
33625;BME280;19962;47.820;1.930;2023-02-28T06:02:21;101440.59;;;2.99;52.92
33625;BME280;19962;47.820;1.930;2023-02-28T06:04:47;101429.97;;;3.14;52.90
33625;BME280;19962;47.820;1.930;2023-02-28T06:07:13;101428.28;;;3.13;52.67
33625;BME280;19962;47.820;1.930;2023-02-28T06:09:40;101437.81;;;3.17;52.83
33625;BME280;19962;47.820;1.930;2023-02-28T06:12:07;101437.06;;;3.07;52.69
33625;BME280;19962;47.820;1.930;2023-02-28T06:14:35;101442.34;;;3.08;52.80
33625;BME280;19962;47.820;1.930;2023-02-28T06:17:03;101437.41;;;2.78;53.37
33625;BME280;19962;47.820;1.930;2023-02-28T06:19:29;101444.50;;;2.79;53.58
33625;BME280;19962;47.820;1.930;2023-02-28T06:42:00;101474.91;;;2.91;54.13
33625;BME280;19962;47.820;1.930;2023-02-28T06:44:26;101487.06;;;2.87;54.46
33625;BME280;19962;47.820;1.930;2023-02-28T06:46:53;101481.78;;;3.03;54.17
33625;BME280;19962;47.820;1.930;2023-02-28T06:49:19;101479.75;;;3.05;53.83
33625;BME280;19962;47.820;1.930;2023-02-28T06:51:45;101478.97;;;3.12;53.53
33625;BME280;19962;47.820;1.930;2023-02-28T06:54:12;101481.56;;;2.96;53.72
33625;BME280;19962;47.820;1.930;2023-02-28T06:56:38;101481.72;;;2.95;53.76
33625;BME280;19962;47.820;1.930;2023-02-28T06:59:05;101478.19;;;2.77;53.86
33625;BME280;19962;47.820;1.930;2023-02-28T07:01:31;101483.09;;;2.73;54.06
33625;BME280;19962;47.820;1.930;2023-02-28T07:03:58;101490.88;;;2.76;54.03
33625;BME280;19962;47.820;1.930;2023-02-28T07:06:26;101480.44;;;2.81;53.84
33625;BME280;19962;47.820;1.930;2023-02-28T07:08:53;101473.59;;;2.95;53.60
33625;BME280;19962;47.820;1.930;2023-02-28T07:11:21;101479.88;;;2.95;53.40
33625;BME280;19962;47.820;1.930;2023-02-28T07:13:49;101493.94;;;2.73;53.99
33625;BME280;19962;47.820;1.930;2023-02-28T07:16:15;101483.84;;;2.83;53.89
33625;BME280;19962;47.820;1.930;2023-02-28T07:18:41;101489.91;;;2.77;54.04
33625;BME280;19962;47.820;1.930;2023-02-28T07:21:09;101498.78;;;2.87;53.60
33625;BME280;19962;47.820;1.930;2023-02-28T07:23:37;101491.00;;;2.92;53.72
33625;BME280;19962;47.820;1.930;2023-02-28T07:26:12;101491.09;;;3.00;53.37
33625;BME280;19962;47.820;1.930;2023-02-28T07:28:43;101494.38;;;2.86;53.63
33625;BME280;19962;47.820;1.930;2023-02-28T07:31:11;101483.41;;;2.96;53.66
33625;BME280;19962;47.820;1.930;2023-02-28T07:33:38;101489.19;;;3.01;53.64
33625;BME280;19962;47.820;1.930;2023-02-28T07:36:06;101494.97;;;2.98;53.22
33625;BME280;19962;47.820;1.930;2023-02-28T07:38:36;101499.28;;;3.08;53.39
33625;BME280;19962;47.820;1.930;2023-02-28T07:41:03;101490.56;;;2.97;53.29
33625;BME280;19962;47.820;1.930;2023-02-28T07:43:33;101489.38;;;2.99;53.50
33625;BME280;19962;47.820;1.930;2023-02-28T07:46:05;101496.50;;;3.00;53.30
33625;BME280;19962;47.820;1.930;2023-02-28T07:48:31;101492.94;;;3.00;53.51
33625;BME280;19962;47.820;1.930;2023-02-28T07:50:59;101498.16;;;3.19;53.05
33625;BME280;19962;47.820;1.930;2023-02-28T07:53:26;101490.63;;;3.38;53.06
33625;BME280;19962;47.820;1.930;2023-02-28T07:55:58;101493.38;;;3.46;52.49
33625;BME280;19962;47.820;1.930;2023-02-28T07:58:25;101494.34;;;3.37;52.65
33625;BME280;19962;47.820;1.930;2023-02-28T08:00:51;101494.28;;;3.21;52.68
33625;BME280;19962;47.820;1.930;2023-02-28T08:03:19;101499.03;;;3.27;52.73
33625;BME280;19962;47.820;1.930;2023-02-28T08:05:46;101499.31;;;3.42;52.51
33625;BME280;19962;47.820;1.930;2023-02-28T08:08:14;101503.13;;;3.31;52.47
33625;BME280;19962;47.820;1.930;2023-02-28T08:10:40;101500.44;;;3.31;52.81
33625;BME280;19962;47.820;1.930;2023-02-28T08:13:07;101500.38;;;3.57;52.51
33625;BME280;19962;47.820;1.930;2023-02-28T08:15:33;101503.34;;;3.71;52.08
33625;BME280;19962;47.820;1.930;2023-02-28T08:17:59;101500.91;;;3.60;52.12
33625;BME280;19962;47.820;1.930;2023-02-28T08:20:26;101510.38;;;3.48;52.13
33625;BME280;19962;47.820;1.930;2023-02-28T08:22:53;101503.47;;;3.62;52.14
33625;BME280;19962;47.820;1.930;2023-02-28T08:25:19;101499.94;;;3.69;51.75
33625;BME280;19962;47.820;1.930;2023-02-28T08:27:45;101507.59;;;3.74;51.78
33625;BME280;19962;47.820;1.930;2023-02-28T08:30:13;101509.81;;;3.78;51.72
33625;BME280;19962;47.820;1.930;2023-02-28T08:32:40;101507.78;;;3.80;51.50
33625;BME280;19962;47.820;1.930;2023-02-28T08:35:06;101508.84;;;3.95;51.44
33625;BME280;19962;47.820;1.930;2023-02-28T08:37:35;101513.25;;;3.96;51.36
33625;BME280;19962;47.820;1.930;2023-02-28T08:40:01;101512.66;;;4.10;51.30
33625;BME280;19962;47.820;1.930;2023-02-28T08:42:27;101516.53;;;4.16;51.03
33625;BME280;19962;47.820;1.930;2023-02-28T08:44:53;101519.63;;;4.13;50.73
33625;BME280;19962;47.820;1.930;2023-02-28T08:47:19;101512.66;;;4.10;50.83
33625;BME280;19962;47.820;1.930;2023-02-28T08:49:45;101512.91;;;3.91;51.18
33625;BME280;19962;47.820;1.930;2023-02-28T08:52:12;101512.28;;;4.13;50.70
33625;BME280;19962;47.820;1.930;2023-02-28T08:54:38;101509.75;;;4.04;50.67
33625;BME280;19962;47.820;1.930;2023-02-28T08:57:04;101505.53;;;4.17;50.44
33625;BME280;19962;47.820;1.930;2023-02-28T08:59:31;101515.22;;;4.28;50.10
33625;BME280;19962;47.820;1.930;2023-02-28T09:01:58;101498.09;;;4.35;49.80
33625;BME280;19962;47.820;1.930;2023-02-28T09:04:24;101507.97;;;4.52;49.43
33625;BME280;19962;47.820;1.930;2023-02-28T09:06:50;101507.63;;;4.71;49.16
33625;BME280;19962;47.820;1.930;2023-02-28T09:09:16;101513.59;;;4.75;48.95
33625;BME280;19962;47.820;1.930;2023-02-28T09:11:42;101508.97;;;4.67;48.95
33625;BME280;19962;47.820;1.930;2023-02-28T09:14:09;101512.75;;;4.74;48.42
33625;BME280;19962;47.820;1.930;2023-02-28T09:16:35;101516.97;;;4.69;48.28
33625;BME280;19962;47.820;1.930;2023-02-28T09:19:01;101521.94;;;4.81;48.16
33625;BME280;19962;47.820;1.930;2023-02-28T09:21:28;101523.63;;;4.90;47.78
33625;BME280;19962;47.820;1.930;2023-02-28T09:23:54;101513.25;;;4.94;47.62
33625;BME280;19962;47.820;1.930;2023-02-28T09:26:25;101513.41;;;4.92;47.24
33625;BME280;19962;47.820;1.930;2023-02-28T09:28:52;101508.47;;;4.96;47.40
33625;BME280;19962;47.820;1.930;2023-02-28T09:31:21;101514.28;;;4.93;46.99
33625;BME280;19962;47.820;1.930;2023-02-28T09:33:50;101507.97;;;4.92;46.84
33625;BME280;19962;47.820;1.930;2023-02-28T09:36:17;101507.47;;;4.89;47.18
33625;BME280;19962;47.820;1.930;2023-02-28T09:38:43;101511.34;;;4.94;47.04
33625;BME280;19962;47.820;1.930;2023-02-28T09:41:16;101505.06;;;5.10;46.57
33625;BME280;19962;47.820;1.930;2023-02-28T09:43:47;101502.69;;;5.15;45.80
33625;BME280;19962;47.820;1.930;2023-02-28T09:49:06;101499.44;;;5.19;46.17
33625;BME280;19962;47.820;1.930;2023-02-28T09:54:17;101504.88;;;5.35;45.69
33625;BME280;19962;47.820;1.930;2023-02-28T09:56:49;101503.09;;;5.50;45.72
33625;BME280;19962;47.820;1.930;2023-02-28T09:59:40;101495.44;;;5.54;45.09
33625;BME280;19962;47.820;1.930;2023-02-28T10:05:00;101493.72;;;5.61;43.62
33625;BME280;19962;47.820;1.930;2023-02-28T10:13:07;101487.41;;;5.60;43.16
33625;BME280;19962;47.820;1.930;2023-02-28T10:15:38;101481.63;;;5.63;43.51
33625;BME280;19962;47.820;1.930;2023-02-28T10:18:10;101481.16;;;5.60;42.72
33625;BME280;19962;47.820;1.930;2023-02-28T10:20:39;101472.28;;;5.58;42.69
33625;BME280;19962;47.820;1.930;2023-02-28T10:25:38;101473.59;;;5.78;42.35
33625;BME280;19962;47.820;1.930;2023-02-28T10:28:15;101467.31;;;5.69;41.16
33625;BME280;19962;47.820;1.930;2023-02-28T10:30:48;101470.00;;;5.85;41.99
33625;BME280;19962;47.820;1.930;2023-02-28T10:33:28;101473.69;;;5.92;41.54
33625;BME280;19962;47.820;1.930;2023-02-28T10:35:54;101461.50;;;5.80;41.77
33625;BME280;19962;47.820;1.930;2023-02-28T10:38:37;101477.03;;;5.64;40.61
33625;BME280;19962;47.820;1.930;2023-02-28T10:43:32;101474.84;;;5.59;41.63
33625;BME280;19962;47.820;1.930;2023-02-28T10:51:12;101466.59;;;5.83;40.57
33625;BME280;19962;47.820;1.930;2023-02-28T10:53:48;101456.81;;;5.97;39.74
33625;BME280;19962;47.820;1.930;2023-02-28T10:56:18;101462.41;;;6.03;40.65
33625;BME280;19962;47.820;1.930;2023-02-28T11:03:49;101452.16;;;6.05;40.46
33625;BME280;19962;47.820;1.930;2023-02-28T11:06:22;101451.69;;;6.02;40.17
33625;BME280;19962;47.820;1.930;2023-02-28T11:08:57;101439.94;;;6.01;39.69
33625;BME280;19962;47.820;1.930;2023-02-28T11:11:26;101453.53;;;6.01;40.09
33625;BME280;19962;47.820;1.930;2023-02-28T11:14:31;101454.41;;;6.02;39.62
33625;BME280;19962;47.820;1.930;2023-02-28T11:20:21;101445.59;;;6.22;39.17
33625;BME280;19962;47.820;1.930;2023-02-28T11:22:51;101441.47;;;6.26;39.19
33625;BME280;19962;47.820;1.930;2023-02-28T11:25:28;101444.38;;;6.02;39.07
33625;BME280;19962;47.820;1.930;2023-02-28T11:28:01;101435.06;;;6.19;39.08
33625;BME280;19962;47.820;1.930;2023-02-28T11:30:39;101427.19;;;6.24;38.45
33625;BME280;19962;47.820;1.930;2023-02-28T11:33:29;101417.94;;;6.33;38.52
33625;BME280;19962;47.820;1.930;2023-02-28T11:36:01;101418.88;;;6.40;39.10
33625;BME280;19962;47.820;1.930;2023-02-28T11:38:29;101425.31;;;6.47;39.45
33625;BME280;19962;47.820;1.930;2023-02-28T11:43:56;101414.47;;;6.39;39.11
33625;BME280;19962;47.820;1.930;2023-02-28T11:46:44;101406.91;;;6.27;38.23
33625;BME280;19962;47.820;1.930;2023-02-28T11:49:47;101407.63;;;6.21;37.71
33625;BME280;19962;47.820;1.930;2023-02-28T12:08:23;101394.00;;;6.43;38.16
33625;BME280;19962;47.820;1.930;2023-02-28T12:13:37;101369.47;;;6.43;38.08
33625;BME280;19962;47.820;1.930;2023-02-28T12:16:21;101365.19;;;6.26;37.78
33625;BME280;19962;47.820;1.930;2023-02-28T12:27:02;101366.06;;;6.41;37.87
33625;BME280;19962;47.820;1.930;2023-02-28T12:29:32;101365.28;;;6.55;38.11
33625;BME280;19962;47.820;1.930;2023-02-28T12:32:06;101356.06;;;6.56;37.50
33625;BME280;19962;47.820;1.930;2023-02-28T12:34:37;101351.00;;;6.68;37.50
33625;BME280;19962;47.820;1.930;2023-02-28T12:37:09;101350.53;;;6.79;37.20
33625;BME280;19962;47.820;1.930;2023-02-28T12:39:41;101353.34;;;6.85;37.11
33625;BME280;19962;47.820;1.930;2023-02-28T12:42:17;101343.13;;;6.87;36.95
33625;BME280;19962;47.820;1.930;2023-02-28T12:44:49;101341.03;;;6.89;37.32
33625;BME280;19962;47.820;1.930;2023-02-28T12:47:18;101340.22;;;6.89;37.30
33625;BME280;19962;47.820;1.930;2023-02-28T12:50:08;101318.25;;;6.97;37.09
33625;BME280;19962;47.820;1.930;2023-02-28T12:56:02;101319.50;;;6.94;37.41
33625;BME280;19962;47.820;1.930;2023-02-28T12:58:41;101321.50;;;7.00;37.30
33625;BME280;19962;47.820;1.930;2023-02-28T13:09:54;101338.50;;;7.02;37.29
33625;BME280;19962;47.820;1.930;2023-02-28T13:12:21;101322.03;;;7.10;37.37
33625;BME280;19962;47.820;1.930;2023-02-28T13:14:49;101329.72;;;7.21;37.01
33625;BME280;19962;47.820;1.930;2023-02-28T13:17:20;101313.34;;;7.21;36.74
33625;BME280;19962;47.820;1.930;2023-02-28T13:22:21;101314.50;;;7.12;37.03
33625;BME280;19962;47.820;1.930;2023-02-28T13:25:01;101309.44;;;7.09;36.86
33625;BME280;19962;47.820;1.930;2023-02-28T13:27:37;101307.94;;;6.92;36.35
33625;BME280;19962;47.820;1.930;2023-02-28T13:38:49;101302.34;;;7.15;36.33
33625;BME280;19962;47.820;1.930;2023-02-28T13:46:26;101298.44;;;7.17;36.51
33625;BME280;19962;47.820;1.930;2023-02-28T13:48:53;101306.91;;;6.93;36.54
33625;BME280;19962;47.820;1.930;2023-02-28T13:51:39;101309.16;;;7.04;36.26
33625;BME280;19962;47.820;1.930;2023-02-28T14:00:23;101299.34;;;7.24;36.48
33625;BME280;19962;47.820;1.930;2023-02-28T14:03:22;101305.75;;;7.17;35.98
33625;BME280;19962;47.820;1.930;2023-02-28T14:11:36;101303.91;;;7.38;36.44
33625;BME280;19962;47.820;1.930;2023-02-28T14:14:03;101311.75;;;7.27;36.29
33625;BME280;19962;47.820;1.930;2023-02-28T14:16:45;101307.63;;;7.16;35.91
33625;BME280;19962;47.820;1.930;2023-02-28T14:19:23;101296.34;;;7.19;36.25
33625;BME280;19962;47.820;1.930;2023-02-28T14:33:18;101301.69;;;7.63;35.65
33625;BME280;19962;47.820;1.930;2023-02-28T14:36:14;101308.31;;;7.54;35.42
33625;BME280;19962;47.820;1.930;2023-02-28T14:38:51;101303.53;;;7.56;36.22
33625;BME280;19962;47.820;1.930;2023-02-28T14:41:31;101302.41;;;7.50;36.24
33625;BME280;19962;47.820;1.930;2023-02-28T14:44:02;101299.13;;;7.40;36.22
33625;BME280;19962;47.820;1.930;2023-02-28T14:46:38;101310.06;;;7.40;35.58
33625;BME280;19962;47.820;1.930;2023-02-28T14:49:09;101297.72;;;7.44;35.85
33625;BME280;19962;47.820;1.930;2023-02-28T14:51:38;101290.28;;;7.38;35.85
33625;BME280;19962;47.820;1.930;2023-02-28T14:54:05;101296.34;;;7.55;35.86
33625;BME280;19962;47.820;1.930;2023-02-28T14:56:38;101288.38;;;7.53;35.32
33625;BME280;19962;47.820;1.930;2023-02-28T14:59:21;101306.53;;;7.46;35.79
33625;BME280;19962;47.820;1.930;2023-02-28T15:01:48;101285.47;;;7.40;35.87
33625;BME280;19962;47.820;1.930;2023-02-28T15:04:27;101298.69;;;7.22;35.99
33625;BME280;19962;47.820;1.930;2023-02-28T15:07:10;101295.09;;;7.22;35.93
33625;BME280;19962;47.820;1.930;2023-02-28T15:09:36;101294.25;;;7.21;36.22
33625;BME280;19962;47.820;1.930;2023-02-28T15:12:02;101291.97;;;7.39;36.08
33625;BME280;19962;47.820;1.930;2023-02-28T15:14:29;101297.63;;;7.38;35.82
33625;BME280;19962;47.820;1.930;2023-02-28T15:17:02;101298.72;;;7.43;35.57
33625;BME280;19962;47.820;1.930;2023-02-28T15:19:36;101292.63;;;7.41;35.71
33625;BME280;19962;47.820;1.930;2023-02-28T15:22:14;101293.56;;;7.48;35.86
33625;BME280;19962;47.820;1.930;2023-02-28T15:24:48;101294.03;;;7.52;35.68
33625;BME280;19962;47.820;1.930;2023-02-28T15:27:24;101286.47;;;7.54;35.69
33625;BME280;19962;47.820;1.930;2023-02-28T15:29:55;101295.16;;;7.43;35.71
33625;BME280;19962;47.820;1.930;2023-02-28T15:32:30;101292.91;;;7.32;35.68
33625;BME280;19962;47.820;1.930;2023-02-28T15:34:58;101297.38;;;7.18;36.03
33625;BME280;19962;47.820;1.930;2023-02-28T15:42:41;101283.31;;;7.36;36.23
33625;BME280;19962;47.820;1.930;2023-02-28T15:45:34;101284.91;;;7.30;36.08
33625;BME280;19962;47.820;1.930;2023-02-28T15:48:04;101290.47;;;7.37;36.00
33625;BME280;19962;47.820;1.930;2023-02-28T15:50:30;101292.53;;;7.49;35.98
33625;BME280;19962;47.820;1.930;2023-02-28T15:52:56;101294.75;;;7.46;36.33
33625;BME280;19962;47.820;1.930;2023-02-28T15:55:26;101289.31;;;7.46;36.13
33625;BME280;19962;47.820;1.930;2023-02-28T15:57:56;101289.53;;;7.44;35.86
33625;BME280;19962;47.820;1.930;2023-02-28T16:00:28;101287.16;;;7.41;35.79
33625;BME280;19962;47.820;1.930;2023-02-28T16:02:54;101278.72;;;7.36;35.99
33625;BME280;19962;47.820;1.930;2023-02-28T16:05:22;101284.34;;;7.35;35.98
33625;BME280;19962;47.820;1.930;2023-02-28T16:07:55;101288.06;;;7.27;36.15
33625;BME280;19962;47.820;1.930;2023-02-28T16:10:23;101296.97;;;7.21;36.24
33625;BME280;19962;47.820;1.930;2023-02-28T16:12:54;101284.00;;;7.23;36.21